sensor_id;sensor_type;location;lat;lon;timestamp;P1;durP1;ratioP1;P2;durP2;ratioP2
19554;SDS011;9924;50.828;6.440;2022-10-13T00:00:56;11.48;;;6.65;;
19554;SDS011;9924;50.828;6.440;2022-10-13T00:03:24;13.32;;;6.85;;
19554;SDS011;9924;50.828;6.440;2022-10-13T00:05:50;13.60;;;6.50;;
19554;SDS011;9924;50.828;6.440;2022-10-13T00:08:17;12.15;;;6.60;;
19554;SDS011;9924;50.828;6.440;2022-10-13T00:10:45;10.15;;;6.32;;
19554;SDS011;9924;50.828;6.440;2022-10-13T00:13:13;12.57;;;6.80;;
19554;SDS011;9924;50.828;6.440;2022-10-13T00:15:40;12.13;;;6.32;;
19554;SDS011;9924;50.828;6.440;2022-10-13T00:18:07;12.75;;;5.90;;
19554;SDS011;9924;50.828;6.440;2022-10-13T00:20:33;15.88;;;6.63;;
19554;SDS011;9924;50.828;6.440;2022-10-13T00:22:59;13.00;;;6.18;;
19554;SDS011;9924;50.828;6.440;2022-10-13T00:25:25;11.60;;;6.03;;
19554;SDS011;9924;50.828;6.440;2022-10-13T00:27:51;16.33;;;6.22;;
19554;SDS011;9924;50.828;6.440;2022-10-13T00:30:17;14.57;;;6.65;;
19554;SDS011;9924;50.828;6.440;2022-10-13T00:32:43;9.70;;;5.68;;
19554;SDS011;9924;50.828;6.440;2022-10-13T00:35:10;10.23;;;5.47;;
19554;SDS011;9924;50.828;6.440;2022-10-13T00:37:35;11.13;;;5.88;;
19554;SDS011;9924;50.828;6.440;2022-10-13T00:40:01;11.40;;;6.40;;
19554;SDS011;9924;50.828;6.440;2022-10-13T00:42:28;11.30;;;6.13;;
19554;SDS011;9924;50.828;6.440;2022-10-13T00:45:11;11.00;;;5.68;;
19554;SDS011;9924;50.828;6.440;2022-10-13T00:47:50;11.95;;;5.80;;
19554;SDS011;9924;50.828;6.440;2022-10-13T00:50:25;8.70;;;5.70;;
19554;SDS011;9924;50.828;6.440;2022-10-13T00:52:56;11.23;;;5.38;;
19554;SDS011;9924;50.828;6.440;2022-10-13T00:55:25;10.30;;;5.97;;
19554;SDS011;9924;50.828;6.440;2022-10-13T00:57:54;10.90;;;5.78;;
19554;SDS011;9924;50.828;6.440;2022-10-13T01:00:24;12.88;;;6.22;;
19554;SDS011;9924;50.828;6.440;2022-10-13T01:02:50;8.13;;;5.35;;
19554;SDS011;9924;50.828;6.440;2022-10-13T01:05:17;13.73;;;5.93;;
19554;SDS011;9924;50.828;6.440;2022-10-13T01:07:45;12.00;;;5.93;;
19554;SDS011;9924;50.828;6.440;2022-10-13T01:10:14;12.02;;;5.43;;
19554;SDS011;9924;50.828;6.440;2022-10-13T01:15:42;10.07;;;5.72;;
19554;SDS011;9924;50.828;6.440;2022-10-13T01:29:31;8.85;;;4.80;;
19554;SDS011;9924;50.828;6.440;2022-10-13T01:32:17;10.20;;;5.38;;
19554;SDS011;9924;50.828;6.440;2022-10-13T01:40:15;16.45;;;5.80;;
19554;SDS011;9924;50.828;6.440;2022-10-13T01:42:55;9.93;;;5.40;;
19554;SDS011;9924;50.828;6.440;2022-10-13T01:45:31;10.00;;;5.43;;
19554;SDS011;9924;50.828;6.440;2022-10-13T01:48:02;9.82;;;5.20;;
19554;SDS011;9924;50.828;6.440;2022-10-13T01:50:31;9.57;;;5.13;;
19554;SDS011;9924;50.828;6.440;2022-10-13T01:52:59;10.80;;;4.95;;
19554;SDS011;9924;50.828;6.440;2022-10-13T01:55:27;7.45;;;4.57;;
19554;SDS011;9924;50.828;6.440;2022-10-13T01:57:54;9.88;;;4.90;;
19554;SDS011;9924;50.828;6.440;2022-10-13T02:00:20;9.55;;;5.13;;
19554;SDS011;9924;50.828;6.440;2022-10-13T02:03:08;10.40;;;5.05;;
19554;SDS011;9924;50.828;6.440;2022-10-13T02:05:46;11.13;;;5.47;;
19554;SDS011;9924;50.828;6.440;2022-10-13T02:10:58;11.52;;;5.22;;
19554;SDS011;9924;50.828;6.440;2022-10-13T02:13:33;13.20;;;5.05;;
19554;SDS011;9924;50.828;6.440;2022-10-13T02:16:03;8.65;;;4.95;;
19554;SDS011;9924;50.828;6.440;2022-10-13T02:18:30;10.30;;;5.15;;
19554;SDS011;9924;50.828;6.440;2022-10-13T02:20:58;8.55;;;5.40;;
19554;SDS011;9924;50.828;6.440;2022-10-13T02:23:26;10.60;;;5.68;;
19554;SDS011;9924;50.828;6.440;2022-10-13T02:25:52;7.65;;;4.90;;
19554;SDS011;9924;50.828;6.440;2022-10-13T02:28:21;8.85;;;4.72;;
19554;SDS011;9924;50.828;6.440;2022-10-13T02:30:48;10.73;;;5.10;;
19554;SDS011;9924;50.828;6.440;2022-10-13T02:33:14;8.27;;;4.28;;
19554;SDS011;9924;50.828;6.440;2022-10-13T02:35:40;8.02;;;4.80;;
19554;SDS011;9924;50.828;6.440;2022-10-13T02:38:07;7.68;;;4.90;;
19554;SDS011;9924;50.828;6.440;2022-10-13T02:40:33;8.77;;;4.85;;
19554;SDS011;9924;50.828;6.440;2022-10-13T02:42:59;7.82;;;4.45;;
19554;SDS011;9924;50.828;6.440;2022-10-13T02:45:24;9.20;;;4.90;;
19554;SDS011;9924;50.828;6.440;2022-10-13T02:47:50;7.38;;;4.57;;
19554;SDS011;9924;50.828;6.440;2022-10-13T02:50:16;11.50;;;5.28;;
19554;SDS011;9924;50.828;6.440;2022-10-13T02:52:42;9.05;;;5.50;;
19554;SDS011;9924;50.828;6.440;2022-10-13T02:55:08;10.13;;;4.95;;
19554;SDS011;9924;50.828;6.440;2022-10-13T02:57:34;10.70;;;5.25;;
19554;SDS011;9924;50.828;6.440;2022-10-13T03:00:00;12.32;;;5.07;;
19554;SDS011;9924;50.828;6.440;2022-10-13T03:02:26;7.72;;;5.15;;
19554;SDS011;9924;50.828;6.440;2022-10-13T03:04:52;9.25;;;5.15;;
19554;SDS011;9924;50.828;6.440;2022-10-13T03:07:18;7.25;;;4.68;;
19554;SDS011;9924;50.828;6.440;2022-10-13T03:09:44;8.68;;;4.75;;
19554;SDS011;9924;50.828;6.440;2022-10-13T03:12:10;10.55;;;4.93;;
19554;SDS011;9924;50.828;6.440;2022-10-13T03:14:36;10.15;;;4.65;;
19554;SDS011;9924;50.828;6.440;2022-10-13T03:17:02;12.32;;;5.40;;
19554;SDS011;9924;50.828;6.440;2022-10-13T03:19:28;8.93;;;5.05;;
19554;SDS011;9924;50.828;6.440;2022-10-13T03:21:54;9.07;;;4.70;;
19554;SDS011;9924;50.828;6.440;2022-10-13T03:24:20;7.53;;;4.63;;
19554;SDS011;9924;50.828;6.440;2022-10-13T03:26:46;9.18;;;4.80;;
19554;SDS011;9924;50.828;6.440;2022-10-13T03:29:15;6.82;;;4.50;;
19554;SDS011;9924;50.828;6.440;2022-10-13T03:31:42;8.25;;;4.78;;
19554;SDS011;9924;50.828;6.440;2022-10-13T03:34:09;8.57;;;4.68;;
19554;SDS011;9924;50.828;6.440;2022-10-13T03:36:35;9.13;;;5.47;;
19554;SDS011;9924;50.828;6.440;2022-10-13T03:39:01;11.40;;;5.18;;
19554;SDS011;9924;50.828;6.440;2022-10-13T03:41:27;7.80;;;4.47;;
19554;SDS011;9924;50.828;6.440;2022-10-13T03:43:53;10.25;;;4.82;;
19554;SDS011;9924;50.828;6.440;2022-10-13T03:46:19;8.13;;;4.85;;
19554;SDS011;9924;50.828;6.440;2022-10-13T03:48:45;12.48;;;5.13;;
19554;SDS011;9924;50.828;6.440;2022-10-13T03:51:15;8.77;;;5.00;;
19554;SDS011;9924;50.828;6.440;2022-10-13T03:53:42;10.40;;;4.65;;
19554;SDS011;9924;50.828;6.440;2022-10-13T03:56:09;8.45;;;4.78;;
19554;SDS011;9924;50.828;6.440;2022-10-13T03:58:39;8.90;;;4.97;;
19554;SDS011;9924;50.828;6.440;2022-10-13T04:01:05;11.23;;;5.00;;
19554;SDS011;9924;50.828;6.440;2022-10-13T04:03:31;9.10;;;4.70;;
19554;SDS011;9924;50.828;6.440;2022-10-13T04:06:00;12.05;;;5.03;;
19554;SDS011;9924;50.828;6.440;2022-10-13T04:08:28;13.98;;;5.70;;
19554;SDS011;9924;50.828;6.440;2022-10-13T04:11:01;10.65;;;5.32;;
19554;SDS011;9924;50.828;6.440;2022-10-13T04:13:29;8.15;;;4.63;;
19554;SDS011;9924;50.828;6.440;2022-10-13T04:16:00;9.90;;;5.32;;
19554;SDS011;9924;50.828;6.440;2022-10-13T04:18:30;9.10;;;4.97;;
19554;SDS011;9924;50.828;6.440;2022-10-13T04:20:57;8.30;;;4.82;;
19554;SDS011;9924;50.828;6.440;2022-10-13T04:23:23;9.05;;;5.07;;
19554;SDS011;9924;50.828;6.440;2022-10-13T04:25:49;10.30;;;5.38;;
19554;SDS011;9924;50.828;6.440;2022-10-13T04:28:15;8.50;;;4.68;;
19554;SDS011;9924;50.828;6.440;2022-10-13T04:30:41;14.65;;;5.40;;
19554;SDS011;9924;50.828;6.440;2022-10-13T04:33:07;13.73;;;5.38;;
19554;SDS011;9924;50.828;6.440;2022-10-13T04:35:33;11.52;;;5.30;;
19554;SDS011;9924;50.828;6.440;2022-10-13T04:38:03;8.25;;;4.75;;
19554;SDS011;9924;50.828;6.440;2022-10-13T04:40:28;8.98;;;5.22;;
19554;SDS011;9924;50.828;6.440;2022-10-13T04:42:54;8.00;;;4.53;;
19554;SDS011;9924;50.828;6.440;2022-10-13T04:45:20;8.13;;;5.00;;
19554;SDS011;9924;50.828;6.440;2022-10-13T04:47:46;10.32;;;5.22;;
19554;SDS011;9924;50.828;6.440;2022-10-13T04:50:12;8.93;;;4.90;;
19554;SDS011;9924;50.828;6.440;2022-10-13T04:52:38;7.18;;;5.13;;
19554;SDS011;9924;50.828;6.440;2022-10-13T04:55:04;10.65;;;5.65;;
19554;SDS011;9924;50.828;6.440;2022-10-13T04:57:30;10.70;;;5.15;;
19554;SDS011;9924;50.828;6.440;2022-10-13T04:59:56;11.75;;;5.30;;
19554;SDS011;9924;50.828;6.440;2022-10-13T05:02:22;12.23;;;5.35;;
19554;SDS011;9924;50.828;6.440;2022-10-13T05:04:47;9.85;;;5.40;;
19554;SDS011;9924;50.828;6.440;2022-10-13T05:07:13;9.57;;;5.68;;
19554;SDS011;9924;50.828;6.440;2022-10-13T05:09:39;9.98;;;5.20;;
19554;SDS011;9924;50.828;6.440;2022-10-13T05:12:05;8.88;;;5.63;;
19554;SDS011;9924;50.828;6.440;2022-10-13T05:14:31;15.13;;;5.88;;
19554;SDS011;9924;50.828;6.440;2022-10-13T05:16:58;13.27;;;5.72;;
19554;SDS011;9924;50.828;6.440;2022-10-13T05:19:23;8.32;;;5.05;;
19554;SDS011;9924;50.828;6.440;2022-10-13T05:21:49;8.48;;;5.78;;
19554;SDS011;9924;50.828;6.440;2022-10-13T05:24:15;12.98;;;6.10;;
19554;SDS011;9924;50.828;6.440;2022-10-13T05:26:41;12.02;;;5.75;;
19554;SDS011;9924;50.828;6.440;2022-10-13T05:29:07;10.60;;;5.72;;
19554;SDS011;9924;50.828;6.440;2022-10-13T05:31:33;9.05;;;5.43;;
19554;SDS011;9924;50.828;6.440;2022-10-13T05:34:00;11.80;;;5.63;;
19554;SDS011;9924;50.828;6.440;2022-10-13T05:36:27;10.18;;;5.60;;
19554;SDS011;9924;50.828;6.440;2022-10-13T05:38:56;10.52;;;5.00;;
19554;SDS011;9924;50.828;6.440;2022-10-13T05:41:23;11.25;;;5.93;;
19554;SDS011;9924;50.828;6.440;2022-10-13T05:43:52;9.18;;;5.43;;
19554;SDS011;9924;50.828;6.440;2022-10-13T05:46:21;9.20;;;5.00;;
19554;SDS011;9924;50.828;6.440;2022-10-13T05:48:48;9.40;;;5.47;;
19554;SDS011;9924;50.828;6.440;2022-10-13T05:51:15;15.95;;;7.38;;
19554;SDS011;9924;50.828;6.440;2022-10-13T05:53:46;15.40;;;6.45;;
19554;SDS011;9924;50.828;6.440;2022-10-13T05:56:18;14.10;;;6.38;;
19554;SDS011;9924;50.828;6.440;2022-10-13T05:58:51;11.65;;;6.38;;
19554;SDS011;9924;50.828;6.440;2022-10-13T06:01:24;10.80;;;6.18;;
19554;SDS011;9924;50.828;6.440;2022-10-13T06:03:54;9.40;;;6.22;;
19554;SDS011;9924;50.828;6.440;2022-10-13T06:06:24;11.35;;;6.65;;
19554;SDS011;9924;50.828;6.440;2022-10-13T06:08:50;12.48;;;6.35;;
19554;SDS011;9924;50.828;6.440;2022-10-13T06:11:17;11.35;;;6.45;;
19554;SDS011;9924;50.828;6.440;2022-10-13T06:13:42;13.82;;;6.38;;
19554;SDS011;9924;50.828;6.440;2022-10-13T06:16:08;15.85;;;6.68;;
19554;SDS011;9924;50.828;6.440;2022-10-13T06:18:34;14.52;;;6.75;;
19554;SDS011;9924;50.828;6.440;2022-10-13T06:21:00;10.23;;;5.75;;
19554;SDS011;9924;50.828;6.440;2022-10-13T06:23:25;16.52;;;6.78;;
19554;SDS011;9924;50.828;6.440;2022-10-13T06:25:51;10.88;;;7.00;;
19554;SDS011;9924;50.828;6.440;2022-10-13T06:28:18;14.93;;;8.02;;
19554;SDS011;9924;50.828;6.440;2022-10-13T06:30:45;14.45;;;7.82;;
19554;SDS011;9924;50.828;6.440;2022-10-13T06:33:17;16.13;;;7.22;;
19554;SDS011;9924;50.828;6.440;2022-10-13T06:35:43;11.18;;;6.85;;
19554;SDS011;9924;50.828;6.440;2022-10-13T06:38:09;14.00;;;7.57;;
19554;SDS011;9924;50.828;6.440;2022-10-13T06:40:35;14.32;;;6.28;;
19554;SDS011;9924;50.828;6.440;2022-10-13T06:43:01;15.68;;;6.95;;
19554;SDS011;9924;50.828;6.440;2022-10-13T06:45:27;15.43;;;6.43;;
19554;SDS011;9924;50.828;6.440;2022-10-13T06:47:53;12.82;;;6.60;;
19554;SDS011;9924;50.828;6.440;2022-10-13T06:50:20;8.70;;;5.90;;
19554;SDS011;9924;50.828;6.440;2022-10-13T06:52:46;14.52;;;6.45;;
19554;SDS011;9924;50.828;6.440;2022-10-13T06:55:12;11.85;;;6.57;;
19554;SDS011;9924;50.828;6.440;2022-10-13T06:57:39;13.77;;;6.22;;
19554;SDS011;9924;50.828;6.440;2022-10-13T07:00:05;12.57;;;5.93;;
19554;SDS011;9924;50.828;6.440;2022-10-13T07:02:32;16.33;;;7.78;;
19554;SDS011;9924;50.828;6.440;2022-10-13T07:04:58;13.68;;;6.25;;
19554;SDS011;9924;50.828;6.440;2022-10-13T07:07:24;10.43;;;6.90;;
19554;SDS011;9924;50.828;6.440;2022-10-13T07:09:50;12.32;;;6.45;;
19554;SDS011;9924;50.828;6.440;2022-10-13T07:12:16;12.35;;;7.03;;
19554;SDS011;9924;50.828;6.440;2022-10-13T07:14:42;17.83;;;6.68;;
19554;SDS011;9924;50.828;6.440;2022-10-13T07:17:08;12.02;;;6.32;;
19554;SDS011;9924;50.828;6.440;2022-10-13T07:19:34;11.63;;;5.97;;
19554;SDS011;9924;50.828;6.440;2022-10-13T07:22:00;9.48;;;5.30;;
19554;SDS011;9924;50.828;6.440;2022-10-13T07:24:25;14.73;;;6.00;;
19554;SDS011;9924;50.828;6.440;2022-10-13T07:26:51;9.85;;;5.18;;
19554;SDS011;9924;50.828;6.440;2022-10-13T07:29:17;15.00;;;6.28;;
19554;SDS011;9924;50.828;6.440;2022-10-13T07:31:43;9.02;;;5.55;;
19554;SDS011;9924;50.828;6.440;2022-10-13T07:34:10;16.35;;;5.60;;
19554;SDS011;9924;50.828;6.440;2022-10-13T07:36:36;12.70;;;6.40;;
19554;SDS011;9924;50.828;6.440;2022-10-13T07:39:04;11.52;;;5.57;;
19554;SDS011;9924;50.828;6.440;2022-10-13T07:41:30;16.67;;;5.97;;
19554;SDS011;9924;50.828;6.440;2022-10-13T07:43:56;8.73;;;4.97;;
19554;SDS011;9924;50.828;6.440;2022-10-13T07:46:23;9.55;;;5.97;;
19554;SDS011;9924;50.828;6.440;2022-10-13T07:48:50;11.30;;;5.10;;
19554;SDS011;9924;50.828;6.440;2022-10-13T07:51:17;10.50;;;5.78;;
19554;SDS011;9924;50.828;6.440;2022-10-13T07:53:43;14.82;;;6.22;;
19554;SDS011;9924;50.828;6.440;2022-10-13T07:56:13;12.43;;;5.28;;
19554;SDS011;9924;50.828;6.440;2022-10-13T07:58:42;11.20;;;5.20;;
19554;SDS011;9924;50.828;6.440;2022-10-13T08:01:10;10.38;;;5.63;;
19554;SDS011;9924;50.828;6.440;2022-10-13T08:03:36;12.13;;;4.95;;
19554;SDS011;9924;50.828;6.440;2022-10-13T08:06:04;10.43;;;5.00;;
19554;SDS011;9924;50.828;6.440;2022-10-13T08:08:30;5.70;;;4.30;;
19554;SDS011;9924;50.828;6.440;2022-10-13T08:11:00;14.07;;;5.63;;
19554;SDS011;9924;50.828;6.440;2022-10-13T08:13:27;6.68;;;3.75;;
19554;SDS011;9924;50.828;6.440;2022-10-13T08:15:53;6.53;;;3.05;;
19554;SDS011;9924;50.828;6.440;2022-10-13T08:18:19;8.88;;;2.80;;
19554;SDS011;9924;50.828;6.440;2022-10-13T08:20:48;7.90;;;2.95;;
19554;SDS011;9924;50.828;6.440;2022-10-13T08:23:14;5.13;;;2.75;;
19554;SDS011;9924;50.828;6.440;2022-10-13T08:25:40;6.38;;;2.92;;
19554;SDS011;9924;50.828;6.440;2022-10-13T08:30:46;6.60;;;2.90;;
19554;SDS011;9924;50.828;6.440;2022-10-13T08:33:12;7.28;;;2.90;;
19554;SDS011;9924;50.828;6.440;2022-10-13T08:35:39;7.07;;;2.80;;
19554;SDS011;9924;50.828;6.440;2022-10-13T08:38:06;5.03;;;2.75;;
19554;SDS011;9924;50.828;6.440;2022-10-13T08:40:32;8.32;;;3.03;;
19554;SDS011;9924;50.828;6.440;2022-10-13T08:42:59;7.68;;;3.08;;
19554;SDS011;9924;50.828;6.440;2022-10-13T08:45:28;6.97;;;3.67;;
19554;SDS011;9924;50.828;6.440;2022-10-13T08:47:56;7.10;;;3.03;;
19554;SDS011;9924;50.828;6.440;2022-10-13T08:50:31;6.43;;;2.75;;
19554;SDS011;9924;50.828;6.440;2022-10-13T08:53:09;4.93;;;3.17;;
19554;SDS011;9924;50.828;6.440;2022-10-13T08:55:42;6.13;;;2.85;;
19554;SDS011;9924;50.828;6.440;2022-10-13T08:58:22;7.57;;;2.65;;
19554;SDS011;9924;50.828;6.440;2022-10-13T09:03:49;6.88;;;3.20;;
19554;SDS011;9924;50.828;6.440;2022-10-13T09:06:25;8.82;;;3.53;;
19554;SDS011;9924;50.828;6.440;2022-10-13T09:09:03;7.47;;;2.90;;
19554;SDS011;9924;50.828;6.440;2022-10-13T09:11:33;10.02;;;3.63;;
19554;SDS011;9924;50.828;6.440;2022-10-13T09:14:05;6.57;;;3.20;;
19554;SDS011;9924;50.828;6.440;2022-10-13T09:16:36;6.00;;;3.92;;
19554;SDS011;9924;50.828;6.440;2022-10-13T09:21:40;14.13;;;3.75;;
19554;SDS011;9924;50.828;6.440;2022-10-13T09:24:07;7.22;;;3.03;;
19554;SDS011;9924;50.828;6.440;2022-10-13T09:26:38;7.80;;;3.15;;
19554;SDS011;9924;50.828;6.440;2022-10-13T09:29:10;8.43;;;3.10;;
19554;SDS011;9924;50.828;6.440;2022-10-13T09:31:50;7.10;;;3.03;;
19554;SDS011;9924;50.828;6.440;2022-10-13T09:36:56;8.85;;;3.65;;
19554;SDS011;9924;50.828;6.440;2022-10-13T09:39:24;6.28;;;3.05;;
19554;SDS011;9924;50.828;6.440;2022-10-13T09:44:58;6.13;;;3.08;;
19554;SDS011;9924;50.828;6.440;2022-10-13T09:47:33;7.93;;;3.10;;
19554;SDS011;9924;50.828;6.440;2022-10-13T09:50:15;7.53;;;3.20;;
19554;SDS011;9924;50.828;6.440;2022-10-13T09:52:44;11.02;;;2.90;;
19554;SDS011;9924;50.828;6.440;2022-10-13T09:58:11;7.90;;;2.90;;
19554;SDS011;9924;50.828;6.440;2022-10-13T10:00:43;7.47;;;3.30;;
19554;SDS011;9924;50.828;6.440;2022-10-13T10:06:06;8.77;;;3.00;;
19554;SDS011;9924;50.828;6.440;2022-10-13T10:08:49;7.40;;;2.92;;
19554;SDS011;9924;50.828;6.440;2022-10-13T10:11:40;7.82;;;2.65;;
19554;SDS011;9924;50.828;6.440;2022-10-13T10:14:29;11.88;;;3.25;;
19554;SDS011;9924;50.828;6.440;2022-10-13T10:25:13;8.85;;;2.97;;
19554;SDS011;9924;50.828;6.440;2022-10-13T10:28:15;8.45;;;2.47;;
19554;SDS011;9924;50.828;6.440;2022-10-13T10:33:48;4.95;;;2.95;;
19554;SDS011;9924;50.828;6.440;2022-10-13T10:36:31;6.35;;;2.95;;
19554;SDS011;9924;50.828;6.440;2022-10-13T10:42:19;7.55;;;3.05;;
19554;SDS011;9924;50.828;6.440;2022-10-13T10:45:01;8.05;;;2.97;;
19554;SDS011;9924;50.828;6.440;2022-10-13T10:47:41;7.68;;;2.92;;
19554;SDS011;9924;50.828;6.440;2022-10-13T10:50:12;5.28;;;2.88;;
19554;SDS011;9924;50.828;6.440;2022-10-13T10:55:23;7.55;;;3.20;;
19554;SDS011;9924;50.828;6.440;2022-10-13T11:00:24;8.05;;;2.90;;
19554;SDS011;9924;50.828;6.440;2022-10-13T11:08:29;5.10;;;2.70;;
19554;SDS011;9924;50.828;6.440;2022-10-13T11:19:11;5.88;;;3.50;;
19554;SDS011;9924;50.828;6.440;2022-10-13T11:37:51;7.75;;;4.20;;
19554;SDS011;9924;50.828;6.440;2022-10-13T11:53:54;10.73;;;4.65;;
19554;SDS011;9924;50.828;6.440;2022-10-13T11:56:48;7.88;;;4.20;;
19554;SDS011;9924;50.828;6.440;2022-10-13T12:01:57;9.93;;;4.18;;
19554;SDS011;9924;50.828;6.440;2022-10-13T12:04:29;7.53;;;4.40;;
19554;SDS011;9924;50.828;6.440;2022-10-13T12:07:13;8.95;;;4.18;;
19554;SDS011;9924;50.828;6.440;2022-10-13T12:09:53;9.48;;;4.45;;
19554;SDS011;9924;50.828;6.440;2022-10-13T12:12:21;8.05;;;4.40;;
19554;SDS011;9924;50.828;6.440;2022-10-13T12:14:49;11.02;;;4.88;;
19554;SDS011;9924;50.828;6.440;2022-10-13T12:19:55;8.75;;;4.63;;
19554;SDS011;9924;50.828;6.440;2022-10-13T12:22:23;7.32;;;3.83;;
19554;SDS011;9924;50.828;6.440;2022-10-13T12:25:00;9.52;;;4.10;;
19554;SDS011;9924;50.828;6.440;2022-10-13T12:27:31;10.85;;;4.60;;
19554;SDS011;9924;50.828;6.440;2022-10-13T12:30:18;9.85;;;4.72;;
19554;SDS011;9924;50.828;6.440;2022-10-13T12:32:49;7.68;;;4.53;;
19554;SDS011;9924;50.828;6.440;2022-10-13T12:35:20;6.72;;;4.30;;
19554;SDS011;9924;50.828;6.440;2022-10-13T12:37:51;9.50;;;4.10;;
19554;SDS011;9924;50.828;6.440;2022-10-13T12:40:19;8.98;;;4.57;;
19554;SDS011;9924;50.828;6.440;2022-10-13T12:42:46;10.35;;;4.60;;
19554;SDS011;9924;50.828;6.440;2022-10-13T12:45:13;9.73;;;4.78;;
19554;SDS011;9924;50.828;6.440;2022-10-13T12:58:23;8.45;;;4.72;;
19554;SDS011;9924;50.828;6.440;2022-10-13T13:00:55;8.52;;;4.70;;
19554;SDS011;9924;50.828;6.440;2022-10-13T13:03:37;7.10;;;4.68;;
19554;SDS011;9924;50.828;6.440;2022-10-13T13:08:40;9.70;;;4.57;;
19554;SDS011;9924;50.828;6.440;2022-10-13T13:11:23;7.00;;;4.45;;
19554;SDS011;9924;50.828;6.440;2022-10-13T13:17:02;11.75;;;4.55;;
19554;SDS011;9924;50.828;6.440;2022-10-13T13:19:33;8.57;;;4.60;;
19554;SDS011;9924;50.828;6.440;2022-10-13T13:22:01;9.27;;;4.47;;
19554;SDS011;9924;50.828;6.440;2022-10-13T13:24:28;8.35;;;3.83;;
19554;SDS011;9924;50.828;6.440;2022-10-13T13:26:54;12.88;;;4.88;;
19554;SDS011;9924;50.828;6.440;2022-10-13T13:29:20;10.27;;;4.75;;
19554;SDS011;9924;50.828;6.440;2022-10-13T13:31:46;7.80;;;4.85;;
19554;SDS011;9924;50.828;6.440;2022-10-13T13:34:18;11.00;;;5.25;;
19554;SDS011;9924;50.828;6.440;2022-10-13T13:36:44;10.23;;;5.20;;
19554;SDS011;9924;50.828;6.440;2022-10-13T13:39:14;9.30;;;4.97;;
19554;SDS011;9924;50.828;6.440;2022-10-13T13:41:42;10.07;;;5.43;;
19554;SDS011;9924;50.828;6.440;2022-10-13T13:44:09;12.13;;;4.95;;
19554;SDS011;9924;50.828;6.440;2022-10-13T13:46:35;10.05;;;5.00;;
19554;SDS011;9924;50.828;6.440;2022-10-13T13:49:04;8.35;;;5.20;;
19554;SDS011;9924;50.828;6.440;2022-10-13T13:51:31;12.90;;;5.65;;
19554;SDS011;9924;50.828;6.440;2022-10-13T13:53:57;8.13;;;5.32;;
19554;SDS011;9924;50.828;6.440;2022-10-13T13:56:23;12.38;;;5.57;;
19554;SDS011;9924;50.828;6.440;2022-10-13T13:58:49;9.55;;;5.85;;
19554;SDS011;9924;50.828;6.440;2022-10-13T14:01:15;9.77;;;6.13;;
19554;SDS011;9924;50.828;6.440;2022-10-13T14:03:41;16.17;;;6.28;;
19554;SDS011;9924;50.828;6.440;2022-10-13T14:06:20;11.30;;;6.07;;
19554;SDS011;9924;50.828;6.440;2022-10-13T14:08:57;12.15;;;6.65;;
19554;SDS011;9924;50.828;6.440;2022-10-13T14:11:23;12.23;;;6.50;;
19554;SDS011;9924;50.828;6.440;2022-10-13T14:13:52;13.18;;;6.47;;
19554;SDS011;9924;50.828;6.440;2022-10-13T14:16:18;14.80;;;6.70;;
19554;SDS011;9924;50.828;6.440;2022-10-13T14:18:44;8.68;;;6.10;;
19554;SDS011;9924;50.828;6.440;2022-10-13T14:21:16;10.68;;;5.95;;
19554;SDS011;9924;50.828;6.440;2022-10-13T14:23:42;12.77;;;7.30;;
19554;SDS011;9924;50.828;6.440;2022-10-13T14:26:11;15.02;;;7.90;;
19554;SDS011;9924;50.828;6.440;2022-10-13T14:28:41;13.27;;;6.57;;
19554;SDS011;9924;50.828;6.440;2022-10-13T14:31:09;11.90;;;6.28;;
19554;SDS011;9924;50.828;6.440;2022-10-13T14:33:35;13.85;;;6.85;;
19554;SDS011;9924;50.828;6.440;2022-10-13T14:36:02;9.68;;;6.82;;
19554;SDS011;9924;50.828;6.440;2022-10-13T14:38:29;12.23;;;6.78;;
19554;SDS011;9924;50.828;6.440;2022-10-13T14:40:58;15.27;;;6.50;;
19554;SDS011;9924;50.828;6.440;2022-10-13T14:43:25;13.80;;;7.32;;
19554;SDS011;9924;50.828;6.440;2022-10-13T14:45:51;11.38;;;7.10;;
19554;SDS011;9924;50.828;6.440;2022-10-13T14:48:17;12.25;;;7.30;;
19554;SDS011;9924;50.828;6.440;2022-10-13T14:50:43;12.73;;;7.18;;
19554;SDS011;9924;50.828;6.440;2022-10-13T14:53:09;14.40;;;6.88;;
19554;SDS011;9924;50.828;6.440;2022-10-13T14:55:42;13.10;;;6.90;;
19554;SDS011;9924;50.828;6.440;2022-10-13T14:58:08;13.80;;;7.18;;
19554;SDS011;9924;50.828;6.440;2022-10-13T15:00:35;14.20;;;7.28;;
19554;SDS011;9924;50.828;6.440;2022-10-13T15:03:01;15.70;;;7.13;;
19554;SDS011;9924;50.828;6.440;2022-10-13T15:05:27;12.88;;;6.80;;
19554;SDS011;9924;50.828;6.440;2022-10-13T15:07:53;11.75;;;6.75;;
19554;SDS011;9924;50.828;6.440;2022-10-13T15:10:19;11.90;;;6.90;;
19554;SDS011;9924;50.828;6.440;2022-10-13T15:12:45;16.05;;;8.05;;
19554;SDS011;9924;50.828;6.440;2022-10-13T15:15:10;14.32;;;8.57;;
19554;SDS011;9924;50.828;6.440;2022-10-13T15:17:36;13.07;;;8.38;;
19554;SDS011;9924;50.828;6.440;2022-10-13T15:20:03;15.98;;;8.32;;
19554;SDS011;9924;50.828;6.440;2022-10-13T15:22:29;13.55;;;8.25;;
19554;SDS011;9924;50.828;6.440;2022-10-13T15:24:56;9.95;;;6.72;;
19554;SDS011;9924;50.828;6.440;2022-10-13T15:27:25;11.95;;;5.47;;
19554;SDS011;9924;50.828;6.440;2022-10-13T15:30:09;8.95;;;5.00;;
19554;SDS011;9924;50.828;6.440;2022-10-13T15:32:48;12.30;;;4.35;;
19554;SDS011;9924;50.828;6.440;2022-10-13T15:35:15;6.63;;;4.40;;
19554;SDS011;9924;50.828;6.440;2022-10-13T15:37:50;7.45;;;4.22;;
19554;SDS011;9924;50.828;6.440;2022-10-13T15:40:15;9.20;;;4.32;;
19554;SDS011;9924;50.828;6.440;2022-10-13T15:42:41;11.68;;;5.13;;
19554;SDS011;9924;50.828;6.440;2022-10-13T15:45:07;7.55;;;4.70;;
19554;SDS011;9924;50.828;6.440;2022-10-13T15:47:34;11.02;;;4.45;;
19554;SDS011;9924;50.828;6.440;2022-10-13T15:50:00;11.80;;;4.70;;
19554;SDS011;9924;50.828;6.440;2022-10-13T15:52:26;8.73;;;4.38;;
19554;SDS011;9924;50.828;6.440;2022-10-13T15:54:52;9.35;;;5.15;;
19554;SDS011;9924;50.828;6.440;2022-10-13T15:57:18;12.18;;;5.75;;
19554;SDS011;9924;50.828;6.440;2022-10-13T15:59:44;7.07;;;4.85;;
19554;SDS011;9924;50.828;6.440;2022-10-13T16:09:20;9.25;;;5.28;;
19554;SDS011;9924;50.828;6.440;2022-10-13T16:12:42;9.52;;;5.88;;
19554;SDS011;9924;50.828;6.440;2022-10-13T16:15:44;9.00;;;5.65;;
19554;SDS011;9924;50.828;6.440;2022-10-13T16:18:46;9.70;;;5.72;;
19554;SDS011;9924;50.828;6.440;2022-10-13T16:22:02;10.68;;;6.13;;
19554;SDS011;9924;50.828;6.440;2022-10-13T16:25:07;8.93;;;5.43;;
19554;SDS011;9924;50.828;6.440;2022-10-13T16:27:33;13.25;;;6.00;;
19554;SDS011;9924;50.828;6.440;2022-10-13T16:29:59;10.98;;;6.15;;
19554;SDS011;9924;50.828;6.440;2022-10-13T16:32:26;12.30;;;7.15;;
19554;SDS011;9924;50.828;6.440;2022-10-13T16:34:55;10.25;;;6.75;;
19554;SDS011;9924;50.828;6.440;2022-10-13T16:37:31;10.40;;;6.50;;
19554;SDS011;9924;50.828;6.440;2022-10-13T16:39:57;13.48;;;7.25;;
19554;SDS011;9924;50.828;6.440;2022-10-13T16:42:56;15.43;;;7.50;;
19554;SDS011;9924;50.828;6.440;2022-10-13T16:45:35;9.00;;;6.53;;
19554;SDS011;9924;50.828;6.440;2022-10-13T16:48:03;12.60;;;7.45;;
19554;SDS011;9924;50.828;6.440;2022-10-13T16:50:49;14.07;;;9.20;;
19554;SDS011;9924;50.828;6.440;2022-10-13T16:53:16;13.77;;;9.82;;
19554;SDS011;9924;50.828;6.440;2022-10-13T16:55:58;15.85;;;10.00;;
19554;SDS011;9924;50.828;6.440;2022-10-13T16:58:25;15.82;;;8.65;;
19554;SDS011;9924;50.828;6.440;2022-10-13T17:01:00;17.55;;;10.20;;
19554;SDS011;9924;50.828;6.440;2022-10-13T17:03:37;14.65;;;9.85;;
19554;SDS011;9924;50.828;6.440;2022-10-13T17:06:04;19.00;;;9.55;;
19554;SDS011;9924;50.828;6.440;2022-10-13T17:08:45;14.45;;;9.45;;
19554;SDS011;9924;50.828;6.440;2022-10-13T17:11:20;14.10;;;8.48;;
19554;SDS011;9924;50.828;6.440;2022-10-13T17:13:50;13.15;;;8.98;;
19554;SDS011;9924;50.828;6.440;2022-10-13T17:16:27;16.90;;;9.38;;
19554;SDS011;9924;50.828;6.440;2022-10-13T17:22:09;17.05;;;10.38;;
19554;SDS011;9924;50.828;6.440;2022-10-13T17:24:38;18.90;;;8.65;;